Time;durP1;ratioP1;P1;durP2;ratioP2;P2;SDS_P1;SDS_P2;PMS_P1;PMS_P2;Temp;Humidity;BMP_temperature;BMP_pressure;BME280_temperature;BME280_humidity;BME280_pressure;Samples;Min_cycle;Max_cycle;Signal;HPM_P1;HPM_P2
2021/11/08 00:02:01;;;;;;;11.47;3.57;;;8.00;99.90;;;;;;5075032;28;20195;-71
2021/11/08 00:04:28;;;;;;;13.03;3.10;;;7.90;99.90;;;;;;5075179;28;20689;-71
2021/11/08 00:06:56;;;;;;;15.03;3.30;;;7.90;99.90;;;;;;5075091;28;20194;-71
2021/11/08 00:09:23;;;;;;;8.73;2.43;;;7.80;99.90;;;;;;5074269;28;20210;-71
2021/11/08 00:11:50;;;;;;;12.43;2.70;;;7.80;99.90;;;;;;5067597;28;20246;-71
2021/11/08 00:14:20;;;;;;;10.57;2.80;;;7.80;99.90;;;;;;5075199;28;20202;-71
2021/11/08 00:16:54;;;;;;;11.70;3.10;;;7.80;99.90;;;;;;5075075;28;20675;-71
2021/11/08 00:19:43;;;;;;;10.80;3.47;;;7.80;99.90;;;;;;5072421;28;20206;-71
2021/11/08 00:22:10;;;;;;;11.93;3.40;;;7.90;99.90;;;;;;5071239;28;20236;-71
2021/11/08 00:24:39;;;;;;;13.00;3.17;;;7.90;99.90;;;;;;5055384;28;20214;-71
2021/11/08 00:27:07;;;;;;;11.93;3.37;;;7.90;99.90;;;;;;5074706;28;20222;-71
2021/11/08 00:29:34;;;;;;;12.17;2.90;;;7.90;99.90;;;;;;5073271;28;20297;-71
2021/11/08 00:32:01;;;;;;;11.00;2.73;;;7.90;99.90;;;;;;5074557;28;20195;-71
2021/11/08 00:34:30;;;;;;;8.40;2.60;;;7.90;99.90;;;;;;5074624;28;20205;-71
2021/11/08 00:36:58;;;;;;;10.83;2.67;;;7.90;99.90;;;;;;5074449;28;20204;-71
2021/11/08 00:39:25;;;;;;;12.10;3.60;;;7.90;99.90;;;;;;5074361;28;20198;-71
2021/11/08 00:41:53;;;;;;;10.23;2.60;;;7.90;99.90;;;;;;5072671;28;20205;-71
2021/11/08 00:44:20;;;;;;;17.70;2.93;;;7.90;99.90;;;;;;5068885;28;20229;-71
2021/11/08 00:46:48;;;;;;;14.37;3.30;;;7.90;99.90;;;;;;5066490;28;20203;-71
2021/11/08 00:49:16;;;;;;;9.37;3.53;;;7.90;99.90;;;;;;5073742;28;20194;-71
2021/11/08 00:51:46;;;;;;;19.47;3.37;;;7.80;99.90;;;;;;5073536;28;20253;-71
2021/11/08 00:54:14;;;;;;;11.63;3.60;;;7.80;99.90;;;;;;5073958;28;20202;-71
2021/11/08 00:56:43;;;;;;;10.83;3.30;;;7.80;99.90;;;;;;5073432;28;20508;-71
2021/11/08 00:59:11;;;;;;;10.53;2.47;;;7.70;99.90;;;;;;5073465;28;20210;-71
2021/11/08 01:01:38;;;;;;;13.13;2.60;;;7.70;99.90;;;;;;5073811;28;20201;-71
2021/11/08 01:04:06;;;;;;;12.37;2.73;;;7.60;99.90;;;;;;5073469;28;20202;-71
2021/11/08 01:06:33;;;;;;;12.40;2.73;;;7.60;99.90;;;;;;5073411;28;20645;-71
2021/11/08 01:09:01;;;;;;;14.63;2.40;;;7.60;99.90;;;;;;5071687;28;20206;-71
2021/11/08 01:11:28;;;;;;;11.57;2.33;;;7.60;99.90;;;;;;5073690;28;20592;-71
2021/11/08 01:13:55;;;;;;;12.37;2.40;;;7.50;99.90;;;;;;5072976;28;20672;-71
2021/11/08 01:16:25;;;;;;;14.03;3.27;;;7.60;99.90;;;;;;5073556;28;20204;-70
2021/11/08 01:18:54;;;;;;;11.50;2.80;;;7.60;99.90;;;;;;5072362;28;20194;-71
2021/11/08 01:21:21;;;;;;;13.73;3.20;;;7.60;99.90;;;;;;5073464;28;20283;-71
2021/11/08 01:23:49;;;;;;;11.40;3.03;;;7.60;99.90;;;;;;5068058;28;20194;-71
2021/11/08 01:26:18;;;;;;;17.97;2.63;;;7.60;99.90;;;;;;5072633;28;20218;-71
2021/11/08 01:28:46;;;;;;;13.17;3.33;;;7.60;99.90;;;;;;5072484;28;20230;-71
2021/11/08 01:31:15;;;;;;;13.47;2.50;;;7.60;99.90;;;;;;5072376;28;20222;-71
2021/11/08 01:33:45;;;;;;;11.30;3.00;;;7.60;99.90;;;;;;5072850;28;20234;-71
2021/11/08 01:36:14;;;;;;;15.83;3.63;;;7.60;99.90;;;;;;5073017;28;20584;-71
2021/11/08 01:38:45;;;;;;;12.13;2.90;;;7.60;99.90;;;;;;5072297;28;20562;-71
2021/11/08 01:41:13;;;;;;;15.70;2.80;;;7.60;99.90;;;;;;5072707;28;20202;-71
2021/11/08 01:43:43;;;;;;;11.00;3.00;;;7.60;99.90;;;;;;5072928;28;20248;-71
2021/11/08 01:46:11;;;;;;;9.30;3.53;;;7.50;99.90;;;;;;5072680;28;20205;-71
2021/11/08 01:48:38;;;;;;;14.77;4.00;;;7.50;99.90;;;;;;5071886;28;20198;-71
2021/11/08 01:51:05;;;;;;;14.67;2.93;;;7.50;99.90;;;;;;5072932;28;20233;-71
2021/11/08 01:53:32;;;;;;;13.93;2.93;;;7.50;99.90;;;;;;5059410;28;20579;-71
2021/11/08 01:56:00;;;;;;;13.20;3.50;;;7.40;99.90;;;;;;5072565;28;20201;-71
2021/11/08 01:58:29;;;;;;;9.93;2.93;;;7.40;99.90;;;;;;5071500;28;20221;-71
2021/11/08 02:00:59;;;;;;;13.53;2.93;;;7.40;99.90;;;;;;5072084;28;20191;-71
2021/11/08 02:03:26;;;;;;;14.77;3.57;;;7.40;99.90;;;;;;5071312;28;20634;-71
2021/11/08 02:05:53;;;;;;;12.77;3.47;;;7.40;99.90;;;;;;5071712;28;20203;-71
2021/11/08 02:08:22;;;;;;;17.97;5.13;;;7.30;99.90;;;;;;5071563;28;20209;-71
2021/11/08 02:10:51;;;;;;;10.57;3.33;;;7.30;99.90;;;;;;5066198;28;20313;-71
2021/11/08 02:13:19;;;;;;;14.13;4.07;;;7.30;99.90;;;;;;5070807;28;20290;-71
2021/11/08 02:15:46;;;;;;;12.13;2.73;;;7.30;99.90;;;;;;5072296;28;20225;-71
2021/11/08 02:18:15;;;;;;;9.93;3.10;;;7.20;99.90;;;;;;5071813;28;20190;-71
2021/11/08 02:20:46;;;;;;;12.80;3.13;;;7.20;99.90;;;;;;5071970;28;20194;-71
2021/11/08 02:23:14;;;;;;;13.57;3.23;;;7.20;99.90;;;;;;5061593;28;20207;-71
2021/11/08 02:25:42;;;;;;;13.70;2.83;;;7.30;99.90;;;;;;5070003;28;20206;-71
2021/11/08 02:28:12;;;;;;;9.53;3.33;;;7.30;99.90;;;;;;5071494;28;20635;-71
2021/11/08 02:30:40;;;;;;;16.43;3.27;;;7.30;99.90;;;;;;5071725;28;20224;-71
2021/11/08 02:33:09;;;;;;;12.23;2.80;;;7.40;99.90;;;;;;5071773;28;20190;-71
2021/11/08 02:35:36;;;;;;;13.47;3.73;;;7.40;99.90;;;;;;5072481;28;20202;-71
2021/11/08 02:38:07;;;;;;;11.57;2.83;;;7.40;99.90;;;;;;5071142;28;20202;-71
2021/11/08 02:40:34;;;;;;;14.53;3.57;;;7.50;99.90;;;;;;5071286;28;20245;-71
2021/11/08 02:43:04;;;;;;;14.93;2.90;;;7.50;99.90;;;;;;5071976;28;20216;-71
2021/11/08 02:45:33;;;;;;;13.77;3.20;;;7.60;99.90;;;;;;5071850;28;20206;-71
2021/11/08 02:48:00;;;;;;;16.73;3.20;;;7.60;99.90;;;;;;5071759;28;20240;-71
2021/11/08 02:50:30;;;;;;;19.23;4.63;;;7.60;99.90;;;;;;5071871;28;20228;-71
2021/11/08 02:52:58;;;;;;;11.43;2.63;;;7.60;99.90;;;;;;5061008;28;20210;-71
2021/11/08 02:55:28;;;;;;;10.70;3.23;;;7.60;99.90;;;;;;5071236;28;20206;-71
2021/11/08 02:57:56;;;;;;;13.70;3.10;;;7.70;99.90;;;;;;5071159;28;20210;-71
2021/11/08 03:00:25;;;;;;;14.17;2.97;;;7.70;99.90;;;;;;5071562;28;20191;-71
2021/11/08 03:02:52;;;;;;;11.43;2.47;;;7.70;99.90;;;;;;5072123;28;20226;-71
2021/11/08 03:05:28;;;;;;;11.63;2.73;;;7.80;99.90;;;;;;5071705;28;20201;-71
2021/11/08 03:07:56;;;;;;;14.93;3.07;;;7.80;99.90;;;;;;5063193;28;20229;-71
2021/11/08 03:10:26;;;;;;;10.97;2.73;;;7.80;99.90;;;;;;5071344;28;20621;-71
2021/11/08 03:12:57;;;;;;;14.97;3.03;;;7.80;99.90;;;;;;5071809;28;20206;-71
2021/11/08 03:15:38;;;;;;;8.50;2.47;;;7.80;99.90;;;;;;5071423;28;20194;-71
2021/11/08 03:18:08;;;;;;;14.17;3.03;;;7.80;99.90;;;;;;5071628;28;20263;-71
2021/11/08 03:20:37;;;;;;;14.57;3.10;;;7.90;99.90;;;;;;5071217;28;20194;-71
2021/11/08 03:23:07;;;;;;;13.63;3.53;;;7.90;99.90;;;;;;5056895;28;20207;-71
2021/11/08 03:25:44;;;;;;;12.63;2.83;;;7.80;99.90;;;;;;5067715;28;20199;-71
2021/11/08 03:28:13;;;;;;;17.17;3.33;;;7.70;99.90;;;;;;5070516;28;20196;-71
2021/11/08 03:30:44;;;;;;;14.53;3.23;;;7.70;99.90;;;;;;5071106;28;20214;-71
2021/11/08 03:33:13;;;;;;;16.33;3.87;;;7.60;99.90;;;;;;5071465;28;20194;-71
2021/11/08 03:35:41;;;;;;;12.83;2.83;;;7.60;99.90;;;;;;5071372;28;20203;-71
2021/11/08 03:38:10;;;;;;;11.90;2.80;;;7.50;99.90;;;;;;5070979;28;20286;-71
2021/11/08 03:40:40;;;;;;;12.73;2.70;;;7.50;99.90;;;;;;5071855;28;20724;-71
2021/11/08 03:43:11;;;;;;;8.90;2.97;;;7.40;99.90;;;;;;5071415;28;20198;-71
2021/11/08 03:45:41;;;;;;;12.47;3.10;;;7.50;99.90;;;;;;5053587;28;20322;-71
2021/11/08 03:48:10;;;;;;;22.33;4.17;;;7.50;99.90;;;;;;5062053;28;20202;-71
2021/11/08 03:50:38;;;;;;;16.30;3.27;;;7.50;99.90;;;;;;5071538;28;20617;-71
2021/11/08 03:53:06;;;;;;;12.30;3.33;;;7.60;99.90;;;;;;5065199;28;20199;-71
2021/11/08 03:55:33;;;;;;;12.97;2.80;;;7.50;99.90;;;;;;5073141;28;20206;-71
2021/11/08 03:58:00;;;;;;;12.27;3.07;;;7.50;99.90;;;;;;5074324;28;20220;-71
2021/11/08 04:00:28;;;;;;;13.63;3.10;;;7.50;99.90;;;;;;5073522;28;20198;-71
2021/11/08 04:02:59;;;;;;;12.50;3.97;;;7.40;99.90;;;;;;5073995;28;20280;-71
2021/11/08 04:05:28;;;;;;;16.13;3.70;;;7.30;99.90;;;;;;5074804;28;20686;-71
2021/11/08 04:07:56;;;;;;;12.13;2.60;;;7.20;99.90;;;;;;5074069;28;20663;-71
2021/11/08 04:10:24;;;;;;;12.13;3.17;;;7.20;99.90;;;;;;5073994;28;20246;-71
2021/11/08 04:12:53;;;;;;;12.27;2.87;;;7.20;99.90;;;;;;5073113;28;20208;-71
2021/11/08 04:15:25;;;;;;;11.50;2.80;;;7.20;99.90;;;;;;5073934;28;20202;-71
2021/11/08 04:17:52;;;;;;;11.53;3.23;;;7.20;99.90;;;;;;5073748;28;20198;-71
2021/11/08 04:20:23;;;;;;;12.80;2.77;;;7.30;99.90;;;;;;5074749;28;20202;-71
2021/11/08 04:22:53;;;;;;;16.80;4.13;;;7.20;99.90;;;;;;5062335;28;20717;-71
2021/11/08 04:25:22;;;;;;;15.00;3.53;;;7.10;99.90;;;;;;5054469;28;20213;-71
2021/11/08 04:27:51;;;;;;;14.83;2.97;;;7.10;99.90;;;;;;5053709;28;20210;-71
2021/11/08 04:30:20;;;;;;;16.77;3.73;;;7.10;99.90;;;;;;5054588;28;20207;-71
2021/11/08 04:33:01;;;;;;;10.90;2.70;;;7.10;99.90;;;;;;5054280;28;20203;-71
2021/11/08 04:35:41;;;;;;;10.57;3.23;;;7.10;99.90;;;;;;5054468;28;20258;-71
2021/11/08 04:38:19;;;;;;;9.10;3.10;;;7.00;99.90;;;;;;5053449;28;20680;-71
2021/11/08 04:40:51;;;;;;;12.33;3.30;;;7.00;99.90;;;;;;5069847;28;20195;-71
2021/11/08 04:43:32;;;;;;;13.77;3.27;;;6.90;99.90;;;;;;5054032;28;20202;-71
2021/11/08 04:48:58;;;;;;;13.37;2.70;;;6.90;99.90;;;;;;5035555;28;20201;-71
2021/11/08 04:51:37;;;;;;;11.13;3.00;;;7.00;99.90;;;;;;5054046;28;20517;-71
2021/11/08 04:54:11;;;;;;;17.77;3.83;;;7.00;99.90;;;;;;5053836;28;20202;-71
2021/11/08 05:24:20;;;;;;;10.47;3.13;;;7.50;99.90;;;;;;5051565;28;20645;-71
2021/11/08 05:32:18;;;;;;;9.67;2.57;;;7.50;99.90;;;;;;5035122;28;20233;-71
2021/11/08 05:34:45;;;;;;;10.33;2.83;;;7.50;99.90;;;;;;5053253;28;20210;-71
2021/11/08 05:37:12;;;;;;;13.93;3.30;;;7.50;99.90;;;;;;5052967;28;20302;-71
2021/11/08 05:39:46;;;;;;;10.33;2.73;;;7.50;99.90;;;;;;5053109;28;20203;-71
2021/11/08 05:42:14;;;;;;;13.53;3.77;;;7.40;99.90;;;;;;5053063;28;20256;-71
2021/11/08 05:44:41;;;;;;;12.70;2.90;;;7.30;99.90;;;;;;5062975;28;20213;-71
2021/11/08 05:47:09;;;;;;;16.90;2.90;;;7.30;99.90;;;;;;5073260;28;20210;-71
2021/11/08 05:49:37;;;;;;;15.70;3.07;;;7.20;99.90;;;;;;5072483;28;20202;-71
2021/11/08 05:52:05;;;;;;;11.63;3.13;;;7.20;99.90;;;;;;5072622;28;20708;-71
2021/11/08 05:54:32;;;;;;;15.30;3.70;;;7.20;99.90;;;;;;5073057;28;20237;-71
2021/11/08 05:57:29;;;;;;;7.40;2.90;;;7.10;99.90;;;;;;5072726;28;20214;-71
2021/11/08 06:00:25;;;;;;;12.20;2.90;;;7.10;99.90;;;;;;5072835;28;20206;-71
2021/11/08 06:49:31;;;;;;;15.40;4.43;;;6.80;99.90;;;;;;5051456;28;20695;-71
2021/11/08 06:51:58;;;;;;;7.17;2.73;;;6.70;99.90;;;;;;5052201;28;20595;-71
2021/11/08 06:54:27;;;;;;;11.97;3.00;;;6.70;99.90;;;;;;5051930;28;20211;-71
2021/11/08 06:56:58;;;;;;;12.30;3.07;;;6.70;99.90;;;;;;5052001;28;20257;-71
2021/11/08 06:59:25;;;;;;;14.50;3.30;;;6.70;99.90;;;;;;5051381;28;20217;-71
2021/11/08 07:01:55;;;;;;;14.50;3.40;;;6.70;99.90;;;;;;5051830;28;20202;-71
2021/11/08 07:04:22;;;;;;;11.73;3.10;;;6.80;99.90;;;;;;5051562;28;20211;-71
2021/11/08 07:06:49;;;;;;;7.77;2.83;;;6.80;99.90;;;;;;5052018;28;20577;-71
2021/11/08 07:09:17;;;;;;;11.40;2.93;;;6.90;99.90;;;;;;5050753;28;20242;-71
2021/11/08 07:11:44;;;;;;;10.80;3.27;;;6.90;99.90;;;;;;5051873;28;20219;-71
2021/11/08 07:14:12;;;;;;;12.30;3.10;;;7.00;99.90;;;;;;5051778;28;20661;-71
2021/11/08 07:16:44;;;;;;;11.80;3.73;;;6.90;99.90;;;;;;5051554;28;20214;-71
2021/11/08 07:19:13;;;;;;;12.50;3.70;;;7.00;99.90;;;;;;5051227;28;20649;-71
2021/11/08 07:21:40;;;;;;;16.13;4.37;;;7.00;99.90;;;;;;5051736;28;20203;-71
2021/11/08 07:24:07;;;;;;;13.17;3.43;;;7.10;99.90;;;;;;5051607;28;20210;-71
2021/11/08 07:26:34;;;;;;;13.53;3.47;;;7.10;99.90;;;;;;5051595;28;20203;-71
2021/11/08 07:29:01;;;;;;;16.93;4.50;;;7.20;99.90;;;;;;5051033;28;20214;-71
2021/11/08 07:31:28;;;;;;;14.30;4.73;;;7.40;99.90;;;;;;5055351;28;20238;-71
2021/11/08 07:33:55;;;;;;;19.00;4.50;;;7.50;99.90;;;;;;5055469;28;20252;-71
2021/11/08 07:36:24;;;;;;;11.63;3.90;;;7.60;99.90;;;;;;5055375;28;20209;-71
2021/11/08 07:38:52;;;;;;;17.37;4.10;;;7.60;99.90;;;;;;5054930;28;20664;-71
2021/11/08 07:41:19;;;;;;;15.87;4.70;;;7.50;99.90;;;;;;5055145;28;20198;-71
2021/11/08 07:43:48;;;;;;;13.17;4.07;;;7.50;99.90;;;;;;5055163;28;20203;-71
2021/11/08 07:46:15;;;;;;;11.53;3.83;;;7.50;99.90;;;;;;5055129;28;20227;-71
2021/11/08 07:48:43;;;;;;;10.00;3.00;;;7.50;99.90;;;;;;5054497;28;20199;-71
2021/11/08 07:51:12;;;;;;;14.10;3.70;;;7.50;99.90;;;;;;5055156;28;20256;-71
2021/11/08 07:53:41;;;;;;;10.90;3.43;;;7.60;99.90;;;;;;5055074;28;20203;-71
2021/11/08 07:56:08;;;;;;;11.30;3.40;;;7.80;99.90;;;;;;5054841;28;20207;-71
2021/11/08 07:58:35;;;;;;;11.30;4.03;;;7.90;99.90;;;;;;5054014;28;20658;-71
2021/11/08 08:01:03;;;;;;;17.10;4.20;;;8.00;99.90;;;;;;5055075;28;20214;-71
2021/11/08 08:03:29;;;;;;;15.80;4.27;;;8.00;99.90;;;;;;5055041;28;20700;-71
2021/11/08 08:05:58;;;;;;;16.63;5.03;;;8.00;99.90;;;;;;5054840;28;20199;-71
2021/11/08 08:08:26;;;;;;;15.27;4.53;;;7.90;99.90;;;;;;5054261;28;20206;-71
2021/11/08 08:10:54;;;;;;;18.47;4.07;;;7.90;99.90;;;;;;5055011;28;20661;-71
2021/11/08 08:13:25;;;;;;;12.60;4.10;;;8.20;99.90;;;;;;5054757;28;20225;-71
2021/11/08 08:15:54;;;;;;;13.77;4.23;;;8.50;99.90;;;;;;5054755;28;20618;-71
2021/11/08 08:18:21;;;;;;;15.03;4.87;;;8.50;99.90;;;;;;5054012;28;20603;-71
2021/11/08 08:20:48;;;;;;;11.83;3.40;;;8.30;99.90;;;;;;5054557;28;20210;-71
2021/11/08 08:23:15;;;;;;;17.10;4.23;;;8.20;99.90;;;;;;5064903;28;20574;-71
2021/11/08 08:25:43;;;;;;;17.77;4.43;;;8.20;99.90;;;;;;5074309;28;20206;-71
2021/11/08 08:28:11;;;;;;;17.87;4.33;;;8.20;99.90;;;;;;5074143;28;20206;-71
2021/11/08 08:30:39;;;;;;;9.63;3.90;;;8.40;99.90;;;;;;5074414;28;20206;-71
2021/11/08 08:33:06;;;;;;;18.40;4.63;;;8.50;99.90;;;;;;5074489;28;20710;-71
2021/11/08 08:35:37;;;;;;;19.77;5.47;;;8.50;99.90;;;;;;5074221;28;20209;-71
2021/11/08 08:38:05;;;;;;;18.60;4.63;;;8.50;99.90;;;;;;5065006;28;20716;-71
2021/11/08 08:40:32;;;;;;;14.63;4.60;;;8.50;99.90;;;;;;5053986;28;20207;-71
2021/11/08 08:42:58;;;;;;;9.57;4.00;;;8.50;99.90;;;;;;5054321;28;20629;-71
2021/11/08 08:45:27;;;;;;;16.03;4.70;;;8.50;99.90;;;;;;5054313;28;20230;-71
2021/11/08 08:47:53;;;;;;;17.50;4.67;;;8.40;99.90;;;;;;5053453;28;20572;-71
2021/11/08 08:50:20;;;;;;;12.80;4.93;;;8.30;99.90;;;;;;5053995;28;20203;-71
2021/11/08 08:52:47;;;;;;;11.73;4.43;;;8.20;99.90;;;;;;5053813;28;20242;-71
2021/11/08 08:55:14;;;;;;;13.57;4.77;;;8.20;99.90;;;;;;5053969;28;20211;-71
2021/11/08 08:57:41;;;;;;;15.47;5.10;;;8.80;99.90;;;;;;5053090;28;20226;-71
2021/11/08 09:00:12;;;;;;;13.20;5.20;;;8.80;99.90;;;;;;5053966;28;20205;-71
2021/11/08 09:02:40;;;;;;;20.50;5.57;;;8.80;99.90;;;;;;5053684;28;20688;-71
2021/11/08 09:05:07;;;;;;;14.03;5.43;;;8.70;99.90;;;;;;5054127;28;20207;-71
2021/11/08 09:07:34;;;;;;;17.23;6.33;;;8.70;99.90;;;;;;5053311;28;20211;-71
2021/11/08 09:10:01;;;;;;;14.57;5.63;;;8.80;99.90;;;;;;5053274;28;20203;-71
2021/11/08 09:12:28;;;;;;;17.33;6.53;;;8.80;99.90;;;;;;5053684;28;20225;-71
2021/11/08 09:14:55;;;;;;;18.10;5.87;;;8.80;99.90;;;;;;5053612;28;20654;-71
2021/11/08 09:17:22;;;;;;;14.93;6.40;;;8.80;99.90;;;;;;5052916;28;20704;-71
2021/11/08 09:19:51;;;;;;;13.93;5.33;;;9.00;99.90;;;;;;5053728;28;20210;-71
2021/11/08 09:22:17;;;;;;;14.97;5.77;;;9.10;99.90;;;;;;5053509;28;20217;-71
2021/11/08 09:24:45;;;;;;;15.47;5.30;;;9.20;99.90;;;;;;5052541;28;20741;-71
2021/11/08 09:27:12;;;;;;;19.37;7.07;;;9.30;99.90;;;;;;5053293;28;20657;-71
2021/11/08 09:29:39;;;;;;;13.70;5.63;;;9.40;99.90;;;;;;5053175;28;20676;-71
2021/11/08 09:32:07;;;;;;;13.80;6.10;;;9.40;99.90;;;;;;5053085;28;20755;-71
2021/11/08 09:34:39;;;;;;;15.43;6.00;;;9.40;99.90;;;;;;5053479;28;20218;-71
2021/11/08 09:37:11;;;;;;;13.67;5.73;;;9.30;99.90;;;;;;5053135;28;20207;-71
2021/11/08 09:39:39;;;;;;;20.50;6.40;;;9.20;99.90;;;;;;5053083;28;20203;-71
2021/11/08 09:42:10;;;;;;;18.90;6.77;;;9.20;99.90;;;;;;5052919;28;20203;-71
2021/11/08 09:44:37;;;;;;;15.80;5.17;;;9.30;99.90;;;;;;5053088;28;20211;-71
2021/11/08 09:47:05;;;;;;;15.43;5.23;;;9.20;99.90;;;;;;5052874;28;20203;-71
2021/11/08 09:49:34;;;;;;;13.70;5.67;;;9.30;99.90;;;;;;5052645;28;20572;-71
2021/11/08 09:52:01;;;;;;;16.60;5.60;;;9.30;99.90;;;;;;5052225;28;20245;-71
2021/11/08 09:54:33;;;;;;;20.93;6.30;;;9.40;99.90;;;;;;5052734;28;20203;-77
2021/11/08 09:57:03;;;;;;;20.93;6.00;;;9.40;99.90;;;;;;5052425;28;20214;-76
2021/11/08 09:59:32;;;;;;;15.63;5.97;;;9.50;99.90;;;;;;5052484;28;20639;-77
2021/11/08 10:02:00;;;;;;;17.50;6.60;;;9.60;99.90;;;;;;5052801;28;20289;-76
2021/11/08 10:04:27;;;;;;;21.63;6.93;;;9.50;99.90;;;;;;5052772;28;20645;-76
2021/11/08 10:06:54;;;;;;;19.83;8.00;;;9.50;99.90;;;;;;5052754;28;20209;-77
2021/11/08 10:09:22;;;;;;;14.57;5.93;;;9.60;99.90;;;;;;5051891;28;20203;-76
2021/11/08 10:11:51;;;;;;;16.10;6.60;;;9.60;99.90;;;;;;5052546;28;20209;-76
2021/11/08 10:14:19;;;;;;;16.23;5.97;;;9.60;99.90;;;;;;5052493;28;20207;-76
2021/11/08 10:16:48;;;;;;;18.13;6.30;;;9.80;99.90;;;;;;5052698;28;20292;-76
2021/11/08 10:19:21;;;;;;;18.10;6.37;;;9.80;99.90;;;;;;5051847;28;20207;-76
2021/11/08 10:21:50;;;;;;;17.40;6.47;;;9.90;99.90;;;;;;5052479;28;20207;-76
2021/11/08 10:24:23;;;;;;;17.30;7.10;;;9.90;99.90;;;;;;5052178;28;20264;-76
2021/11/08 10:26:53;;;;;;;14.70;5.20;;;9.90;99.90;;;;;;5052950;28;20187;-76
2021/11/08 10:29:22;;;;;;;13.60;5.47;;;10.00;99.90;;;;;;5051566;28;20199;-76
2021/11/08 10:31:52;;;;;;;13.13;6.03;;;10.10;99.90;;;;;;5052406;28;20653;-76
2021/11/08 10:34:20;;;;;;;12.17;5.40;;;10.00;99.90;;;;;;5052081;28;20632;-76
2021/11/08 10:36:57;;;;;;;16.10;6.30;;;10.10;99.90;;;;;;5052411;28;20213;-77
2021/11/08 10:39:24;;;;;;;14.77;5.17;;;10.20;99.90;;;;;;5051336;28;20211;-76
2021/11/08 10:41:55;;;;;;;13.07;5.27;;;10.10;99.90;;;;;;5052091;28;20199;-77
2021/11/08 10:44:24;;;;;;;13.60;5.60;;;10.10;99.90;;;;;;5052140;28;20203;-76
2021/11/08 10:46:57;;;;;;;12.77;5.00;;;10.20;99.90;;;;;;5051879;28;20249;-77
2021/11/08 10:49:26;;;;;;;16.27;5.03;;;10.20;99.90;;;;;;5051833;28;20612;-76
2021/11/08 10:51:56;;;;;;;15.17;4.63;;;10.30;99.90;;;;;;5051915;28;20209;-77
2021/11/08 10:54:25;;;;;;;14.73;4.53;;;10.40;99.90;;;;;;5052021;28;20294;-76
2021/11/08 10:56:58;;;;;;;11.90;4.50;;;10.40;99.90;;;;;;5056500;28;20209;-76
2021/11/08 10:59:29;;;;;;;13.53;4.53;;;10.40;99.90;;;;;;5071269;28;20322;-76
2021/11/08 11:01:58;;;;;;;12.60;4.40;;;10.40;99.90;;;;;;5072144;28;20618;-77
2021/11/08 11:04:36;;;;;;;14.47;4.47;;;10.50;99.90;;;;;;5074427;28;20206;-77
2021/11/08 11:07:03;;;;;;;17.93;5.07;;;10.50;99.90;;;;;;5070348;28;20217;-77
2021/11/08 11:09:34;;;;;;;11.57;4.20;;;10.60;99.90;;;;;;5055347;28;20217;-77
2021/11/08 11:12:09;;;;;;;12.57;3.97;;;10.80;99.90;;;;;;5055750;28;20209;-77
2021/11/08 11:14:37;;;;;;;16.20;4.40;;;10.80;99.90;;;;;;5056171;28;20228;-77
2021/11/08 11:17:09;;;;;;;14.90;4.37;;;10.90;99.90;;;;;;5055934;28;20203;-77
2021/11/08 11:19:38;;;;;;;11.07;3.70;;;10.80;99.90;;;;;;5055580;28;20207;-76
2021/11/08 11:22:09;;;;;;;15.47;4.17;;;10.80;99.90;;;;;;5055798;28;20203;-77
2021/11/08 11:24:43;;;;;;;12.43;3.57;;;10.70;99.90;;;;;;5055469;28;20231;-76
2021/11/08 11:27:16;;;;;;;15.40;4.10;;;10.70;99.90;;;;;;5055820;28;20210;-77
2021/11/08 11:29:44;;;;;;;14.60;4.00;;;10.60;99.90;;;;;;5055492;28;20211;-77
2021/11/08 11:32:24;;;;;;;13.50;3.97;;;10.70;99.90;;;;;;5055466;28;20207;-77
2021/11/08 11:34:50;;;;;;;16.40;4.67;;;10.70;99.90;;;;;;5055291;28;20256;-77
2021/11/08 11:37:20;;;;;;;12.03;4.27;;;10.70;99.90;;;;;;5055146;28;20209;-77
2021/11/08 11:39:46;;;;;;;13.00;4.70;;;10.80;99.90;;;;;;5055153;28;20210;-76
2021/11/08 11:42:15;;;;;;;15.27;4.03;;;10.80;99.90;;;;;;5055254;28;20207;-77
2021/11/08 11:44:42;;;;;;;12.10;3.87;;;10.80;99.90;;;;;;5055253;28;20203;-77
2021/11/08 11:47:17;;;;;;;11.67;3.93;;;10.90;99.90;;;;;;5055213;28;20552;-77
2021/11/08 11:49:46;;;;;;;11.07;3.77;;;10.90;99.90;;;;;;5055583;28;20210;-77
2021/11/08 11:52:13;;;;;;;11.60;4.07;;;11.00;99.90;;;;;;5055200;28;20225;-77
2021/11/08 11:54:40;;;;;;;11.80;4.27;;;11.00;99.90;;;;;;5055116;28;20210;-77
2021/11/08 11:57:07;;;;;;;14.33;4.43;;;11.00;99.90;;;;;;5054780;28;20219;-76
2021/11/08 11:59:37;;;;;;;12.90;4.40;;;11.00;99.90;;;;;;5054730;28;20281;-77
2021/11/08 12:02:05;;;;;;;14.13;4.03;;;11.10;99.90;;;;;;5054761;28;20206;-77
2021/11/08 12:04:32;;;;;;;15.03;5.10;;;11.10;99.90;;;;;;5055289;28;20206;-77
2021/11/08 12:07:01;;;;;;;11.67;4.13;;;11.10;99.90;;;;;;5054888;28;20693;-77
2021/11/08 12:09:31;;;;;;;10.30;3.97;;;11.00;99.90;;;;;;5054852;28;20253;-77
2021/11/08 12:11:58;;;;;;;12.63;3.83;;;11.10;99.90;;;;;;5054648;28;20564;-77
2021/11/08 12:14:26;;;;;;;11.73;4.10;;;11.10;99.90;;;;;;5054650;28;20226;-77
2021/11/08 12:16:58;;;;;;;15.13;4.80;;;11.10;99.90;;;;;;5054349;28;20210;-77
2021/11/08 12:19:27;;;;;;;13.93;5.00;;;11.10;99.90;;;;;;5054478;28;20207;-77
2021/11/08 12:21:54;;;;;;;14.77;4.50;;;11.20;99.90;;;;;;5054889;28;20207;-77
2021/11/08 12:24:24;;;;;;;13.70;4.83;;;11.20;99.90;;;;;;5054391;28;20203;-77
2021/11/08 12:27:06;;;;;;;15.87;4.30;;;11.30;99.90;;;;;;5054448;28;20199;-77
2021/11/08 12:29:33;;;;;;;16.87;4.10;;;11.40;99.90;;;;;;5054284;28;20226;-77
2021/11/08 12:32:09;;;;;;;11.67;3.70;;;11.50;99.90;;;;;;5054617;28;20199;-77
2021/11/08 12:34:42;;;;;;;12.53;4.93;;;11.50;99.90;;;;;;5054423;28;20226;-77
2021/11/08 12:37:09;;;;;;;10.97;3.97;;;11.50;99.90;;;;;;5054383;28;20203;-77
2021/11/08 12:39:37;;;;;;;17.93;5.37;;;11.40;99.90;;;;;;5053806;28;20566;-77
2021/11/08 12:42:08;;;;;;;16.03;4.10;;;11.50;99.90;;;;;;5054515;28;20199;-77
2021/11/08 12:44:37;;;;;;;9.27;2.70;;;11.70;99.90;;;;;;5054582;28;20249;-77
2021/11/08 12:47:06;;;;;;;14.53;4.00;;;11.80;99.90;;;;;;5054066;28;20207;-77
2021/11/08 12:49:36;;;;;;;8.10;2.80;;;11.90;99.90;;;;;;5053717;28;20207;-77
2021/11/08 12:52:13;;;;;;;11.40;3.27;;;12.10;99.90;;;;;;5054011;28;20192;-77
2021/11/08 12:54:52;;;;;;;11.73;3.00;;;12.70;99.90;;;;;;5053977;28;20265;-77
2021/11/08 12:57:21;;;;;;;13.80;3.70;;;12.50;99.90;;;;;;5053323;28;20699;-77
2021/11/08 12:59:50;;;;;;;13.57;3.77;;;13.40;99.90;;;;;;5053925;28;20203;-77
2021/11/08 13:02:27;;;;;;;10.53;3.80;;;14.20;99.90;;;;;;5054237;28;20213;-77
2021/11/08 13:04:57;;;;;;;12.13;4.17;;;13.80;99.90;;;;;;5054107;28;20199;-77
2021/11/08 13:07:28;;;;;;;10.50;3.37;;;13.30;99.90;;;;;;5053379;28;20211;-77
2021/11/08 13:09:57;;;;;;;11.17;3.00;;;12.60;99.90;;;;;;5053872;28;20209;-77
2021/11/08 13:12:31;;;;;;;12.37;3.37;;;12.10;99.90;;;;;;5053617;28;20214;-78
2021/11/08 13:15:08;;;;;;;12.93;2.87;;;11.90;99.90;;;;;;5053502;28;20592;-77
2021/11/08 13:17:48;;;;;;;10.60;2.90;;;11.80;99.90;;;;;;5052957;28;20293;-77
2021/11/08 13:20:16;;;;;;;14.57;2.63;;;11.70;99.90;;;;;;5053602;28;20222;-72
2021/11/08 13:22:45;;;;;;;14.57;3.43;;;11.70;99.90;;;;;;5052704;28;20211;-71
2021/11/08 13:25:15;;;;;;;9.90;2.60;;;11.70;99.90;;;;;;5073680;28;20202;-71
2021/11/08 13:27:47;;;;;;;13.90;3.20;;;11.60;99.90;;;;;;5071866;28;20558;-75
2021/11/08 13:30:15;;;;;;;8.80;2.70;;;11.60;99.90;;;;;;5073496;28;20602;-75
2021/11/08 13:32:43;;;;;;;10.40;3.10;;;11.60;99.90;;;;;;5073548;28;20633;-75
2021/11/08 13:35:24;;;;;;;10.90;3.17;;;11.50;99.90;;;;;;5079088;28;20201;-76
2021/11/08 13:37:52;;;;;;;15.37;2.90;;;11.40;99.90;;;;;;5076236;28;20208;-76
2021/11/08 13:40:22;;;;;;;13.87;2.63;;;11.40;99.90;;;;;;5082033;28;20198;-76
2021/11/08 13:42:52;;;;;;;11.30;2.63;;;11.40;99.90;;;;;;5073198;28;20199;-76
2021/11/08 13:45:20;;;;;;;8.80;2.50;;;11.30;99.90;;;;;;5057789;28;20207;-76
2021/11/08 13:47:49;;;;;;;8.90;2.30;;;11.30;99.90;;;;;;5061676;28;20201;-76
2021/11/08 13:50:22;;;;;;;10.27;3.20;;;11.30;99.90;;;;;;5072519;28;20206;-76
2021/11/08 13:52:54;;;;;;;6.07;1.90;;;11.20;99.90;;;;;;5068202;28;20231;-76
2021/11/08 13:55:21;;;;;;;17.17;2.60;;;11.30;99.90;;;;;;5061683;28;21462;-76
2021/11/08 13:57:49;;;;;;;17.13;2.90;;;11.20;99.90;;;;;;5061576;28;20711;-76
2021/11/08 14:00:18;;;;;;;9.83;2.60;;;11.20;99.90;;;;;;5054515;28;20256;-75
2021/11/08 14:02:45;;;;;;;8.90;2.60;;;11.30;99.90;;;;;;5054204;28;20620;-75
2021/11/08 14:05:13;;;;;;;13.83;2.20;;;11.20;99.90;;;;;;5062816;28;20645;-75
2021/11/08 14:07:42;;;;;;;12.93;2.53;;;11.20;99.90;;;;;;5064108;28;20631;-75
2021/11/08 14:10:12;;;;;;;9.27;2.80;;;11.10;99.90;;;;;;5063409;28;20572;-75
2021/11/08 14:12:40;;;;;;;8.37;2.40;;;11.10;99.90;;;;;;5059301;28;20203;-75
2021/11/08 14:15:09;;;;;;;9.37;2.27;;;11.10;99.90;;;;;;5056822;28;20258;-75
2021/11/08 14:17:42;;;;;;;15.53;2.50;;;11.00;99.90;;;;;;5056038;28;20214;-75
2021/11/08 14:20:11;;;;;;;7.77;2.37;;;11.00;99.90;;;;;;5054633;28;20203;-75